createdAt,value
2023-04-26T00:00:10.280Z,4.67
2023-04-26T00:05:13.292Z,4.69
2023-04-26T00:10:15.006Z,4.82
2023-04-26T00:15:16.667Z,4.65
2023-04-26T00:20:19.900Z,4.62
2023-04-26T00:25:21.554Z,4.43
2023-04-26T00:30:23.155Z,4.54
2023-04-26T00:35:26.156Z,4.32
2023-04-26T00:40:27.783Z,4.21
2023-04-26T00:45:29.703Z,4.26
2023-04-26T00:50:33.238Z,4.26
2023-04-26T00:55:35.111Z,4.19
2023-04-26T01:00:36.820Z,4.32
2023-04-26T01:05:39.906Z,4.10
2023-04-26T01:10:41.668Z,3.97
2023-04-26T01:15:45.428Z,4.20
2023-04-26T01:20:48.466Z,4.08
2023-04-26T01:25:52.012Z,4.00
2023-04-26T01:30:53.699Z,4.11
2023-04-26T01:35:55.473Z,4.00
2023-04-26T01:40:58.623Z,4.08
2023-04-26T01:46:00.283Z,3.85
2023-04-26T01:51:01.924Z,3.89
2023-04-26T01:56:05.474Z,3.61
2023-04-26T02:01:08.721Z,3.62
2023-04-26T02:06:10.324Z,3.80
2023-04-26T02:11:13.340Z,3.77
2023-04-26T02:16:15.060Z,3.64
2023-04-26T02:21:17.363Z,3.79
2023-04-26T02:26:20.511Z,3.75
2023-04-26T02:31:23.097Z,3.89
2023-04-26T02:36:25.159Z,3.49
2023-04-26T02:41:28.157Z,3.56
2023-04-26T02:46:29.854Z,3.29
2023-04-26T02:51:32.516Z,3.39
2023-04-26T02:56:35.474Z,3.46
2023-04-26T03:01:37.165Z,3.07
2023-04-26T03:06:38.843Z,3.32
2023-04-26T03:11:41.826Z,3.24
2023-04-26T03:16:44.667Z,3.19
2023-04-26T03:21:46.465Z,3.33
2023-04-26T03:26:49.504Z,3.10
2023-04-26T03:31:51.190Z,3.40
2023-04-26T03:36:52.811Z,3.33
2023-04-26T03:41:55.801Z,3.32
2023-04-26T03:46:57.451Z,3.45
2023-04-26T03:51:59.099Z,3.29
2023-04-26T03:57:02.090Z,3.45
2023-04-26T04:02:03.744Z,3.48
2023-04-26T04:07:05.357Z,3.26
2023-04-26T04:12:08.626Z,3.34
2023-04-26T04:17:10.315Z,2.88
2023-04-26T04:22:11.979Z,3.25
2023-04-26T04:27:14.933Z,3.20
2023-04-26T04:32:16.510Z,3.12
2023-04-26T04:37:18.093Z,3.39
2023-04-26T04:42:21.148Z,3.80
2023-04-26T04:47:22.879Z,2.88
2023-04-26T04:52:24.534Z,3.46
2023-04-26T04:57:27.594Z,3.72
2023-04-26T05:02:29.405Z,4.29
2023-04-26T05:07:31.359Z,5.03
2023-04-26T05:12:34.378Z,5.24
2023-04-26T05:17:36.061Z,5.43
2023-04-26T05:22:37.705Z,6.17
2023-04-26T05:27:40.825Z,5.73
2023-04-26T05:32:42.573Z,5.43
2023-04-26T05:37:44.231Z,6.37
2023-04-26T05:42:47.211Z,8.03
2023-04-26T05:47:48.837Z,10.18
2023-04-26T05:52:50.532Z,12.70
2023-04-26T05:57:53.532Z,13.09
2023-04-26T06:02:55.306Z,14.78
2023-04-26T06:07:57.244Z,11.59
2023-04-26T06:13:00.220Z,18.01
2023-04-26T06:18:01.906Z,19.16
2023-04-26T06:23:03.566Z,17.71
2023-04-26T06:28:06.622Z,18.23
2023-04-26T06:33:08.328Z,17.06
2023-04-26T06:38:10.138Z,15.21
2023-04-26T06:43:13.269Z,14.26
2023-04-26T06:48:14.904Z,17.37
2023-04-26T06:53:16.509Z,15.35
2023-04-26T06:58:19.634Z,21.72
2023-04-26T07:03:21.518Z,20.48
2023-04-26T07:08:23.387Z,16.75
2023-04-26T07:13:26.374Z,16.87
2023-04-26T07:18:28.035Z,17.07
2023-04-26T07:23:29.772Z,23.05
2023-04-26T07:28:33.253Z,22.70
2023-04-26T07:33:35.006Z,22.13
2023-04-26T07:38:36.776Z,23.87
2023-04-26T07:43:39.762Z,25.03
2023-04-26T07:48:41.390Z,21.87
2023-04-26T07:53:43.057Z,21.35
2023-04-26T07:58:46.036Z,21.50
2023-04-26T08:03:47.963Z,20.35
2023-04-26T08:08:50.861Z,17.68
2023-04-26T08:13:54.222Z,15.17
2023-04-26T08:18:56.146Z,15.50
2023-04-26T08:23:57.854Z,15.56
2023-04-26T08:29:00.940Z,16.52
2023-04-26T08:34:02.580Z,19.72
2023-04-26T08:39:04.460Z,15.19
2023-04-26T08:44:08.557Z,14.40
2023-04-26T08:49:18.832Z,15.24
2023-04-26T08:54:20.803Z,14.77
2023-04-26T08:59:23.962Z,14.82
2023-04-26T09:04:25.764Z,15.86
2023-04-26T09:09:29.489Z,14.54
2023-04-26T09:14:32.750Z,14.04
2023-04-26T09:19:39.150Z,13.92
2023-04-26T09:24:47.979Z,13.53
2023-04-26T09:30:04.690Z,13.11
2023-04-26T09:35:07.136Z,13.57
2023-04-26T09:40:18.903Z,14.04
2023-04-26T09:45:22.021Z,13.13
2023-04-26T09:50:28.038Z,12.73
2023-04-26T09:55:35.522Z,13.07
2023-04-26T10:00:41.579Z,12.39
2023-04-26T10:05:43.409Z,12.21
2023-04-26T10:10:45.086Z,12.84
2023-04-26T10:15:48.700Z,12.92
2023-04-26T10:20:53.740Z,12.80
2023-04-26T10:25:56.420Z,13.07
2023-04-26T10:31:00.259Z,13.36
2023-04-26T10:36:08.183Z,14.09
2023-04-26T10:41:30.188Z,13.00
2023-04-26T10:46:40.723Z,12.85
2023-04-26T10:52:11.012Z,12.99
2023-04-26T10:57:12.882Z,12.29
2023-04-26T11:02:16.040Z,12.71
2023-04-26T11:07:36.613Z,12.31
2023-04-26T11:12:41.811Z,12.34
2023-04-26T11:17:44.995Z,12.39
2023-04-26T11:22:47.883Z,13.13
2023-04-26T11:27:49.590Z,12.69
2023-04-26T11:32:52.766Z,12.27
2023-04-26T11:37:54.397Z,13.17
2023-04-26T11:42:59.643Z,13.55
2023-04-26T11:48:04.383Z,13.37
2023-04-26T11:53:08.053Z,13.68
2023-04-26T11:58:11.029Z,13.50
2023-04-26T12:03:15.251Z,13.26
2023-04-26T12:08:16.985Z,13.38
2023-04-26T12:13:19.324Z,13.85
2023-04-26T12:18:22.372Z,13.57
2023-04-26T12:23:24.048Z,13.26
2023-04-26T12:28:26.098Z,13.35
2023-04-26T12:33:29.222Z,13.18
2023-04-26T12:38:30.869Z,13.41
2023-04-26T12:43:32.551Z,13.41
2023-04-26T12:48:35.710Z,13.18
2023-04-26T12:53:37.361Z,13.31
2023-04-26T12:58:38.989Z,12.87
2023-04-26T13:03:42.207Z,13.08
2023-04-26T13:08:43.897Z,13.19
2023-04-26T13:13:45.716Z,12.56
2023-04-26T13:18:48.807Z,13.06
2023-04-26T13:23:50.393Z,13.24
2023-04-26T13:28:52.072Z,13.03
2023-04-26T13:33:55.058Z,13.06
2023-04-26T13:38:56.711Z,12.65
2023-04-26T13:43:58.364Z,13.09
2023-04-26T13:49:01.439Z,12.99
2023-04-26T13:54:03.600Z,12.81
2023-04-26T13:59:05.331Z,12.78
2023-04-26T14:04:11.414Z,12.93
2023-04-26T14:09:13.413Z,13.00
2023-04-26T14:14:15.143Z,12.88
2023-04-26T14:19:18.286Z,12.76
2023-04-26T14:24:19.904Z,12.72
2023-04-26T14:29:21.526Z,12.72
2023-04-26T14:34:24.533Z,12.78
2023-04-26T14:39:26.318Z,12.66
2023-04-26T14:44:28.206Z,12.34
2023-04-26T14:49:31.203Z,12.54
2023-04-26T14:54:37.653Z,12.62
2023-04-26T14:59:39.306Z,12.12
2023-04-26T15:04:42.496Z,12.24
2023-04-26T15:09:44.412Z,12.41
2023-04-26T15:14:46.017Z,12.30
2023-04-26T15:19:49.117Z,12.33
2023-04-26T15:24:51.004Z,12.45
2023-04-26T15:29:53.568Z,12.19
2023-04-26T15:34:56.657Z,11.98
2023-04-26T15:39:58.326Z,12.16
2023-04-26T15:44:59.906Z,12.09
2023-04-26T15:50:04.032Z,12.21
2023-04-26T15:55:06.580Z,12.25
2023-04-26T16:00:09.438Z,12.07
2023-04-26T16:05:12.617Z,12.18
2023-04-26T16:10:14.341Z,12.19
2023-04-26T16:15:16.148Z,12.08
2023-04-26T16:20:19.177Z,12.12
2023-04-26T16:25:21.000Z,11.98
2023-04-26T16:30:22.705Z,11.96
2023-04-26T16:35:25.974Z,11.71
2023-04-26T16:40:27.654Z,11.67
2023-04-26T16:45:29.320Z,11.53
2023-04-26T16:50:32.524Z,11.51
2023-04-26T16:55:34.145Z,11.35
2023-04-26T17:00:35.759Z,11.43
2023-04-26T17:05:40.025Z,11.47
2023-04-26T17:10:41.911Z,11.38
2023-04-26T17:15:43.748Z,11.41
2023-04-26T17:20:46.817Z,11.57
2023-04-26T17:25:48.486Z,11.50
2023-04-26T17:30:50.147Z,11.48
2023-04-26T17:35:53.189Z,11.40
2023-04-26T17:40:54.841Z,11.22
2023-04-26T17:45:56.608Z,11.19
2023-04-26T17:50:59.709Z,11.05
2023-04-26T17:56:01.371Z,10.82
2023-04-26T18:01:04.289Z,10.64
2023-04-26T18:06:07.652Z,10.45
2023-04-26T18:11:09.283Z,10.24
2023-04-26T18:16:10.868Z,10.18
2023-04-26T18:21:13.890Z,10.07
2023-04-26T18:26:15.523Z,10.01
2023-04-26T18:31:17.129Z,9.97
2023-04-26T18:36:20.173Z,9.81
2023-04-26T18:41:21.891Z,9.60
2023-04-26T18:46:23.526Z,9.59
2023-04-26T18:51:26.773Z,9.41
2023-04-26T18:56:28.954Z,9.43
2023-04-26T19:01:30.712Z,9.20
2023-04-26T19:06:33.795Z,9.09
2023-04-26T19:11:35.405Z,8.98
2023-04-26T19:16:37.185Z,8.90
2023-04-26T19:21:43.702Z,8.78
2023-04-26T19:26:45.402Z,8.76
2023-04-26T19:31:47.103Z,8.57
2023-04-26T19:36:50.112Z,8.53
2023-04-26T19:41:51.735Z,8.35
2023-04-26T19:46:53.477Z,8.31
2023-04-26T19:51:56.529Z,8.33
2023-04-26T19:56:58.160Z,8.20
2023-04-26T20:01:59.813Z,8.23
2023-04-26T20:07:02.940Z,8.10
2023-04-26T20:12:04.898Z,7.95
2023-04-26T20:17:06.509Z,8.04
2023-04-26T20:22:09.570Z,7.92
2023-04-26T20:27:11.223Z,7.96
2023-04-26T20:32:12.898Z,7.70
2023-04-26T20:37:16.012Z,7.70
2023-04-26T20:42:17.620Z,7.54
2023-04-26T20:47:19.455Z,7.50
2023-04-26T20:52:22.479Z,7.38
2023-04-26T20:57:24.208Z,7.21
2023-04-26T21:02:26.152Z,7.02
2023-04-26T21:07:29.275Z,6.80
2023-04-26T21:12:30.850Z,7.03
2023-04-26T21:17:32.515Z,7.02
2023-04-26T21:22:35.655Z,6.89
2023-04-26T21:27:37.257Z,6.70
2023-04-26T21:32:38.866Z,6.67
2023-04-26T21:37:41.883Z,6.59
2023-04-26T21:42:48.903Z,6.76
2023-04-26T21:47:56.060Z,6.89
2023-04-26T21:52:59.111Z,6.84
2023-04-26T21:58:00.694Z,7.04
2023-04-26T22:03:02.431Z,6.85
2023-04-26T22:08:05.739Z,7.15
2023-04-26T22:13:07.451Z,7.17
2023-04-26T22:18:09.267Z,7.14
2023-04-26T22:23:12.304Z,7.21
2023-04-26T22:28:15.365Z,6.99
2023-04-26T22:33:17.008Z,6.90
2023-04-26T22:38:19.983Z,7.05
2023-04-26T22:43:22.582Z,6.65
2023-04-26T22:48:24.286Z,6.67
2023-04-26T22:53:27.371Z,6.62
2023-04-26T22:58:28.973Z,6.84
2023-04-26T23:03:30.858Z,6.36
2023-04-26T23:08:34.057Z,6.55
2023-04-26T23:13:35.790Z,6.45
2023-04-26T23:18:37.446Z,6.23
2023-04-26T23:23:40.428Z,6.01
2023-04-26T23:28:42.307Z,5.94
2023-04-26T23:33:44.112Z,5.81
2023-04-26T23:38:47.095Z,5.90
2023-04-26T23:43:48.722Z,5.67
2023-04-26T23:48:50.367Z,5.53
2023-04-26T23:53:53.816Z,5.53
2023-04-26T23:58:55.418Z,5.55
